createdAt,value
2018-09-25T00:02:29.002Z,96317.58
2018-09-25T00:05:02.854Z,96311.31
2018-09-25T00:07:36.673Z,96301.75
2018-09-25T00:10:10.617Z,96309.16
2018-09-25T00:12:44.358Z,96295.86
2018-09-25T00:15:18.115Z,96304.30
2018-09-25T00:17:51.887Z,96306.77
2018-09-25T00:20:25.687Z,96307.22
2018-09-25T00:22:59.589Z,96311.57
2018-09-25T00:25:33.580Z,96313.00
2018-09-25T00:28:07.433Z,96312.50
2018-09-25T00:30:41.369Z,96320.58
2018-09-25T00:33:15.214Z,96301.06
2018-09-25T00:35:49.094Z,96322.97
2018-09-25T00:38:22.940Z,96290.06
2018-09-25T00:40:56.833Z,96329.88
2018-09-25T00:43:30.773Z,96336.92
2018-09-25T00:46:04.588Z,96326.20
2018-09-25T00:48:38.532Z,96330.14
2018-09-25T00:51:12.524Z,96330.81
2018-09-25T00:53:46.351Z,96334.36
2018-09-25T00:56:20.094Z,96338.13
2018-09-25T00:58:53.977Z,96327.81
2018-09-25T01:01:27.761Z,96338.13
2018-09-25T01:04:01.609Z,96346.79
2018-09-25T01:06:35.489Z,96348.58
2018-09-25T01:09:09.408Z,96337.72
2018-09-25T01:11:43.292Z,96353.38
2018-09-25T01:14:17.083Z,96358.45
2018-09-25T01:16:50.719Z,96361.95
2018-09-25T01:19:24.545Z,96358.38
2018-09-25T01:21:58.407Z,96359.27
2018-09-25T01:24:32.278Z,96349.89
2018-09-25T01:27:06.140Z,96361.57
2018-09-25T01:29:40.063Z,96366.49
2018-09-25T01:32:13.936Z,96367.84
2018-09-25T01:34:47.838Z,96348.52
2018-09-25T01:37:21.751Z,96367.20
2018-09-25T01:39:55.647Z,96357.73
2018-09-25T01:42:29.566Z,96356.97
2018-09-25T01:45:03.428Z,96355.04
2018-09-25T01:47:37.298Z,96370.91
2018-09-25T01:50:11.388Z,96376.53
2018-09-25T01:52:45.279Z,96381.56
2018-09-25T01:55:19.296Z,96373.58
2018-09-25T01:57:53.103Z,96372.73
2018-09-25T02:00:27.086Z,96380.59
2018-09-25T02:03:00.936Z,96375.02
2018-09-25T02:05:34.928Z,96374.28
2018-09-25T02:08:08.670Z,96381.30
2018-09-25T02:10:42.633Z,96378.41
2018-09-25T02:13:16.579Z,96378.08
2018-09-25T02:15:50.441Z,96381.64
2018-09-25T02:18:24.353Z,96385.97
2018-09-25T02:20:58.041Z,96386.06
2018-09-25T02:23:31.879Z,96395.17
2018-09-25T02:26:05.752Z,96385.23
2018-09-25T02:28:39.730Z,96397.58
2018-09-25T02:31:13.628Z,96400.78
2018-09-25T02:33:47.536Z,96389.19
2018-09-25T02:36:21.501Z,96394.83
2018-09-25T02:38:55.320Z,96406.42
2018-09-25T02:41:29.148Z,96402.69
2018-09-25T02:44:03.036Z,96403.50
2018-09-25T02:46:36.945Z,96406.39
2018-09-25T02:49:10.864Z,96411.77
2018-09-25T02:51:44.784Z,96404.92
2018-09-25T02:54:18.788Z,96416.19
2018-09-25T02:56:52.763Z,96401.17
2018-09-25T02:59:26.752Z,96399.02
2018-09-25T03:02:00.644Z,96413.83
2018-09-25T03:04:34.464Z,96424.84
2018-09-25T03:07:08.609Z,96420.03
2018-09-25T03:09:42.518Z,96421.38
2018-09-25T03:12:16.450Z,96424.27
2018-09-25T03:14:50.368Z,96429.62
2018-09-25T03:17:24.288Z,96428.36
2018-09-25T03:19:58.248Z,96427.37
2018-09-25T03:22:32.013Z,96434.59
2018-09-25T03:25:05.959Z,96440.34
2018-09-25T03:27:39.656Z,96440.91
2018-09-25T03:30:13.588Z,96439.70
2018-09-25T03:32:47.394Z,96444.23
2018-09-25T03:35:21.306Z,96436.64
2018-09-25T03:37:55.329Z,96440.16
2018-09-25T03:40:29.240Z,96426.78
2018-09-25T03:43:03.112Z,96438.81
2018-09-25T03:45:37.025Z,96450.14
2018-09-25T03:48:10.878Z,96448.23
2018-09-25T03:50:44.779Z,96441.84
2018-09-25T03:53:18.742Z,96442.06
2018-09-25T03:55:52.637Z,96443.63
2018-09-25T03:58:26.473Z,96449.56
2018-09-25T04:01:00.305Z,96455.95
2018-09-25T04:03:34.155Z,96446.97
2018-09-25T04:06:08.144Z,96443.19
2018-09-25T04:08:42.188Z,96464.81
2018-09-25T04:11:16.107Z,96464.55
2018-09-25T04:13:50.065Z,96467.62
2018-09-25T04:16:24.031Z,96471.90
2018-09-25T04:18:58.006Z,96469.84
2018-09-25T04:21:31.958Z,96476.18
2018-09-25T04:24:05.851Z,96464.92
2018-09-25T04:26:39.677Z,96468.15
2018-09-25T04:29:13.517Z,96479.89
2018-09-25T04:31:47.569Z,96490.28
2018-09-25T04:34:21.592Z,96487.05
2018-09-25T04:36:55.516Z,96474.77
2018-09-25T04:39:29.290Z,96489.73
2018-09-25T04:42:03.613Z,96491.28
2018-09-25T04:44:37.424Z,96494.44
2018-09-25T04:47:11.577Z,96495.41
2018-09-25T04:49:45.405Z,96492.25
2018-09-25T04:52:19.334Z,96494.52
2018-09-25T04:54:53.338Z,96500.98
2018-09-25T04:57:27.157Z,96490.91
2018-09-25T05:00:01.034Z,96497.96
2018-09-25T05:02:34.909Z,96497.50
2018-09-25T05:05:08.901Z,96499.97
2018-09-25T05:07:42.876Z,96507.78
2018-09-25T05:10:16.842Z,96494.87
2018-09-25T05:12:50.771Z,96505.34
2018-09-25T05:15:24.645Z,96503.23
2018-09-25T05:17:58.677Z,96509.99
2018-09-25T05:20:32.605Z,96497.01
2018-09-25T05:23:06.463Z,96506.20
2018-09-25T05:25:40.209Z,96498.84
2018-09-25T05:28:14.138Z,96504.12
2018-09-25T05:30:48.015Z,96508.02
2018-09-25T05:33:21.939Z,96513.19
2018-09-25T05:35:55.770Z,96478.00
2018-09-25T05:38:29.690Z,96508.89
2018-09-25T05:41:03.613Z,96512.86
2018-09-25T05:43:37.544Z,96505.50
2018-09-25T05:46:11.364Z,96509.08
2018-09-25T05:48:45.389Z,96506.62
2018-09-25T05:51:19.256Z,96504.69
2018-09-25T05:53:53.202Z,96521.28
2018-09-25T05:56:27.227Z,96518.70
2018-09-25T05:59:01.036Z,96521.57
2018-09-25T06:01:34.912Z,96533.42
2018-09-25T06:04:08.695Z,96512.32
2018-09-25T06:06:42.515Z,96507.72
2018-09-25T06:09:16.479Z,96508.38
2018-09-25T06:11:50.265Z,96518.61
2018-09-25T06:14:24.136Z,96511.19
2018-09-25T06:16:58.067Z,96505.40
2018-09-25T06:19:32.080Z,96514.48
2018-09-25T06:22:06.048Z,96505.20
2018-09-25T06:24:39.918Z,96506.18
2018-09-25T06:27:13.849Z,96513.75
2018-09-25T06:29:47.689Z,96515.15
2018-09-25T06:32:21.571Z,96522.02
2018-09-25T06:34:55.464Z,96519.50
2018-09-25T06:37:29.305Z,96520.50
2018-09-25T06:40:03.224Z,96515.08
2018-09-25T06:42:36.967Z,96510.38
2018-09-25T06:45:10.860Z,96507.30
2018-09-25T06:47:44.733Z,96514.68
2018-09-25T06:50:18.645Z,96520.39
2018-09-25T06:52:52.527Z,96529.42
2018-09-25T06:55:26.345Z,96533.63
2018-09-25T06:58:00.139Z,96521.08
2018-09-25T07:00:34.000Z,96511.89
2018-09-25T07:03:07.950Z,96515.35
2018-09-25T07:05:41.800Z,96522.95
2018-09-25T07:08:15.706Z,96529.31
2018-09-25T07:10:49.596Z,96523.98
2018-09-25T07:13:23.589Z,96527.64
2018-09-25T07:15:57.608Z,96524.39
2018-09-25T07:18:31.544Z,96521.81
2018-09-25T07:21:05.483Z,96522.50
2018-09-25T07:23:39.456Z,96525.48
2018-09-25T07:26:13.427Z,96531.44
2018-09-25T07:28:47.494Z,96534.02
2018-09-25T07:31:21.349Z,96532.92
2018-09-25T07:33:55.324Z,96532.61
2018-09-25T07:36:29.413Z,96545.97
2018-09-25T07:39:03.331Z,96553.10
2018-09-25T07:41:37.228Z,96553.77
2018-09-25T07:44:11.037Z,96550.94
2018-09-25T07:46:45.811Z,96556.45
2018-09-25T07:49:19.745Z,96554.97
2018-09-25T07:51:53.591Z,96553.48
2018-09-25T07:54:27.485Z,96552.41
2018-09-25T07:57:01.318Z,96546.30
2018-09-25T07:59:35.480Z,96542.50
2018-09-25T08:02:09.303Z,96548.45
2018-09-25T08:04:43.251Z,96546.36
2018-09-25T08:07:17.257Z,96541.95
2018-09-25T08:09:51.289Z,96540.96
2018-09-25T08:12:25.128Z,96534.13
2018-09-25T08:14:59.068Z,96531.86
2018-09-25T08:17:32.872Z,96530.36
2018-09-25T08:20:06.768Z,96529.58
2018-09-25T08:22:40.707Z,96537.56
2018-09-25T08:25:14.600Z,96538.00
2018-09-25T08:27:48.487Z,96533.63
2018-09-25T08:30:22.407Z,96537.95
2018-09-25T08:32:56.257Z,96534.23
2018-09-25T08:35:30.241Z,96533.59
2018-09-25T08:38:04.181Z,96528.73
2018-09-25T08:40:38.058Z,96529.13
2018-09-25T08:43:12.022Z,96533.67
2018-09-25T08:45:46.058Z,96543.53
2018-09-25T08:48:19.999Z,96537.42
2018-09-25T08:50:53.831Z,96533.55
2018-09-25T08:53:27.860Z,96532.86
2018-09-25T08:56:01.668Z,96536.16
2018-09-25T08:58:35.593Z,96531.55
2018-09-25T09:01:09.480Z,96520.98
2018-09-25T09:03:43.304Z,96530.13
2018-09-25T09:06:17.157Z,96529.07
2018-09-25T09:08:51.208Z,96525.66
2018-09-25T09:11:25.101Z,96526.59
2018-09-25T09:13:58.923Z,96528.90
2018-09-25T09:16:32.872Z,96535.03
2018-09-25T09:19:06.884Z,96541.80
2018-09-25T09:21:40.783Z,96537.12
2018-09-25T09:24:14.723Z,96540.19
2018-09-25T09:26:48.614Z,96539.36
2018-09-25T09:29:22.505Z,96537.36
2018-09-25T09:31:56.451Z,96541.28
2018-09-25T09:34:30.364Z,96540.37
2018-09-25T09:37:04.254Z,96535.97
2018-09-25T09:39:38.121Z,96527.48
2018-09-25T09:42:12.077Z,96530.63
2018-09-25T09:44:46.137Z,96530.23
2018-09-25T09:47:20.053Z,96528.98
2018-09-25T09:49:54.004Z,96533.30
2018-09-25T09:52:28.052Z,96524.09
2018-09-25T09:55:01.872Z,96537.44
2018-09-25T09:57:35.716Z,96535.36
2018-09-25T10:00:11.029Z,96531.39
2018-09-25T10:02:44.868Z,96530.21
2018-09-25T10:05:18.743Z,96537.96
2018-09-25T10:07:52.694Z,96537.30
2018-09-25T10:10:26.709Z,96519.90
2018-09-25T10:13:00.646Z,96530.37
2018-09-25T10:15:34.630Z,96525.97
2018-09-25T10:18:08.542Z,96516.00
2018-09-25T10:20:42.573Z,96516.23
2018-09-25T10:23:16.422Z,96513.62
2018-09-25T10:25:50.352Z,96410.12
2018-09-25T10:28:24.330Z,96508.61
2018-09-25T10:30:58.228Z,96509.47
2018-09-25T10:33:32.022Z,96506.34
2018-09-25T10:36:06.068Z,96502.41
2018-09-25T10:38:39.927Z,96499.77
2018-09-25T10:41:13.796Z,96513.08
2018-09-25T10:43:47.664Z,96502.69
2018-09-25T10:46:21.531Z,96502.36
2018-09-25T10:48:55.525Z,96497.86
2018-09-25T10:51:29.405Z,96500.06
2018-09-25T10:54:03.385Z,96481.09
2018-09-25T10:59:17.362Z,96489.73
2018-09-25T11:01:51.122Z,96485.44
2018-09-25T11:04:24.994Z,96480.45
2018-09-25T11:06:59.061Z,96472.77
2018-09-25T11:09:33.048Z,96475.62
2018-09-25T11:12:07.002Z,96474.34
2018-09-25T11:14:40.957Z,96472.69
2018-09-25T11:17:14.788Z,96479.25
2018-09-25T11:19:48.703Z,96464.44
2018-09-25T11:22:22.709Z,96474.57
2018-09-25T11:24:56.599Z,96469.47
2018-09-25T11:27:30.451Z,96465.57
2018-09-25T11:30:04.476Z,96461.73
2018-09-25T11:32:38.467Z,96452.95
2018-09-25T11:35:12.425Z,96439.64
2018-09-25T11:37:46.231Z,96447.33
2018-09-25T11:40:19.960Z,96442.80
2018-09-25T11:42:53.903Z,96446.47
2018-09-25T11:45:27.803Z,96439.67
2018-09-25T11:48:01.626Z,96440.63
2018-09-25T11:50:35.577Z,96438.52
2018-09-25T11:53:09.419Z,96432.72
2018-09-25T11:55:43.227Z,96441.56
2018-09-25T11:58:17.015Z,96434.98
2018-09-25T12:00:51.109Z,96437.62
2018-09-25T12:03:25.136Z,96430.23
2018-09-25T12:05:58.977Z,96432.09
2018-09-25T12:08:33.220Z,96420.94
2018-09-25T12:11:07.041Z,96428.28
2018-09-25T12:13:40.944Z,96423.64
2018-09-25T12:16:14.916Z,96436.31
2018-09-25T12:18:48.899Z,96426.50
2018-09-25T12:21:22.966Z,96432.70
2018-09-25T12:23:56.982Z,96438.31
2018-09-25T12:26:30.978Z,96440.81
2018-09-25T12:29:04.964Z,96441.28
2018-09-25T12:31:38.829Z,96429.03
2018-09-25T12:34:12.803Z,95654.38
2018-09-25T12:36:46.718Z,96422.90
2018-09-25T12:39:20.623Z,96434.34
2018-09-25T12:41:54.425Z,96426.72
2018-09-25T12:44:28.484Z,96421.72
2018-09-25T12:47:02.409Z,96422.59
2018-09-25T12:49:36.332Z,96424.45
2018-09-25T12:52:10.187Z,96416.74
2018-09-25T12:54:44.091Z,96407.55
2018-09-25T12:57:17.971Z,96414.45
2018-09-25T12:59:51.882Z,96412.80
2018-09-25T13:02:25.896Z,96410.95
2018-09-25T13:04:59.719Z,96418.92
2018-09-25T13:07:33.630Z,96424.36
2018-09-25T13:10:07.390Z,96424.35
2018-09-25T13:12:41.325Z,96429.02
2018-09-25T13:15:15.316Z,96423.46
2018-09-25T13:17:49.108Z,96430.00
2018-09-25T13:20:22.970Z,96425.14
2018-09-25T13:22:56.879Z,96423.91
2018-09-25T13:25:30.760Z,96416.05
2018-09-25T13:28:04.611Z,96419.47
2018-09-25T13:30:38.364Z,96413.14
2018-09-25T13:33:12.340Z,96421.06
2018-09-25T13:35:46.369Z,96412.42
2018-09-25T13:38:20.407Z,96402.55
2018-09-25T13:40:54.546Z,96411.42
2018-09-25T13:43:28.468Z,96414.02
2018-09-25T13:46:02.426Z,96422.43
2018-09-25T13:48:36.352Z,96421.94
2018-09-25T13:51:10.366Z,96431.38
2018-09-25T13:53:44.342Z,96428.75
2018-09-25T13:56:18.276Z,96429.66
2018-09-25T13:58:52.206Z,96432.47
2018-09-25T14:01:26.296Z,96431.22
2018-09-25T14:04:00.296Z,96431.99
2018-09-25T14:06:34.327Z,96426.17
2018-09-25T14:09:08.274Z,96436.91
2018-09-25T14:11:42.143Z,96426.34
2018-09-25T14:14:15.889Z,96432.13
2018-09-25T14:16:49.821Z,96426.64
2018-09-25T14:19:23.859Z,96432.50
2018-09-25T14:21:57.746Z,96431.88
2018-09-25T14:24:31.604Z,96437.94
2018-09-25T14:27:05.612Z,96437.67
2018-09-25T14:29:39.625Z,96434.25
2018-09-25T14:32:13.432Z,96435.05
2018-09-25T14:34:47.235Z,96436.52
2018-09-25T14:37:21.147Z,96427.95
2018-09-25T14:39:55.102Z,96431.47
2018-09-25T14:42:28.996Z,96437.62
2018-09-25T14:45:02.844Z,96447.34
2018-09-25T14:47:36.960Z,96445.98
2018-09-25T14:50:10.857Z,96451.51
2018-09-25T14:52:44.759Z,96449.98
2018-09-25T14:55:18.741Z,96462.36
2018-09-25T14:57:59.641Z,96457.66
2018-09-25T15:00:33.579Z,96463.67
2018-09-25T15:03:07.375Z,96464.11
2018-09-25T15:05:41.358Z,96474.70
2018-09-25T15:08:15.285Z,96476.22
2018-09-25T15:10:49.312Z,96436.66
2018-09-25T15:13:23.167Z,96470.51
2018-09-25T15:15:57.112Z,96470.73
2018-09-25T15:18:31.101Z,96478.84
2018-09-25T15:21:05.154Z,96478.30
2018-09-25T15:23:39.079Z,96480.39
2018-09-25T15:26:12.944Z,96483.75
2018-09-25T15:28:46.883Z,96490.50
2018-09-25T15:31:20.848Z,96494.01
2018-09-25T15:33:54.763Z,96498.84
2018-09-25T15:36:28.671Z,96503.34
2018-09-25T15:39:02.566Z,96503.45
2018-09-25T15:41:36.499Z,96509.13
2018-09-25T15:44:10.516Z,96510.91
2018-09-25T15:46:44.452Z,96513.33
2018-09-25T15:49:18.459Z,96516.13
2018-09-25T15:51:52.401Z,96517.09
2018-09-25T15:54:26.273Z,96532.43
2018-09-25T15:57:00.169Z,96530.52
2018-09-25T15:59:34.089Z,96532.28
2018-09-25T16:02:07.983Z,96536.83
2018-09-25T16:04:41.778Z,96545.92
2018-09-25T16:07:15.728Z,96539.54
2018-09-25T16:09:49.667Z,96532.78
2018-09-25T16:12:23.582Z,96356.30
2018-09-25T16:14:57.540Z,96557.02
2018-09-25T16:17:31.443Z,96562.48
2018-09-25T16:20:05.456Z,96564.23
2018-09-25T16:22:39.386Z,96574.34
2018-09-25T16:25:13.324Z,96581.38
2018-09-25T16:27:47.239Z,96581.03
2018-09-25T16:30:23.827Z,96589.95
2018-09-25T16:32:57.563Z,96584.14
2018-09-25T16:35:31.576Z,96590.62
2018-09-25T16:38:05.624Z,96600.53
2018-09-25T16:40:39.514Z,96598.44
2018-09-25T16:43:13.521Z,96611.23
2018-09-25T16:45:47.426Z,96603.50
2018-09-25T16:48:21.256Z,96617.58
2018-09-25T16:50:55.286Z,96619.86
2018-09-25T16:53:29.206Z,96617.41
2018-09-25T16:56:03.142Z,96618.10
2018-09-25T16:58:36.947Z,96629.77
2018-09-25T17:01:10.753Z,96640.11
2018-09-25T17:03:44.497Z,96641.14
2018-09-25T17:06:18.475Z,96646.44
2018-09-25T17:08:52.284Z,96645.95
2018-09-25T17:11:26.038Z,96652.33
2018-09-25T17:13:59.895Z,96653.68
2018-09-25T17:16:33.887Z,96657.88
2018-09-25T17:19:07.834Z,96654.37
2018-09-25T17:21:41.689Z,96664.81
2018-09-25T17:24:15.691Z,96679.97
2018-09-25T17:26:49.639Z,96684.03
2018-09-25T17:29:23.545Z,96688.23
2018-09-25T17:31:57.431Z,96690.52
2018-09-25T17:34:31.476Z,96689.10
2018-09-25T17:37:05.477Z,96687.27
2018-09-25T17:39:39.850Z,96688.45
2018-09-25T17:42:13.765Z,96690.83
2018-09-25T17:44:47.679Z,96706.13
2018-09-25T17:47:21.574Z,96713.75
2018-09-25T17:49:55.456Z,96719.88
2018-09-25T17:52:29.471Z,96707.38
2018-09-25T17:55:03.357Z,96698.95
2018-09-25T17:57:37.229Z,96703.88
2018-09-25T18:00:13.387Z,96712.84
2018-09-25T18:02:47.240Z,96720.37
2018-09-25T18:05:21.056Z,96721.44
2018-09-25T18:07:54.960Z,96733.27
2018-09-25T18:10:28.806Z,96729.34
2018-09-25T18:13:02.784Z,96721.88
2018-09-25T18:15:36.765Z,96517.36
2018-09-25T18:18:10.710Z,96736.41
2018-09-25T18:20:45.040Z,96740.28
2018-09-25T18:23:18.964Z,96751.06
2018-09-25T18:25:52.788Z,96752.47
2018-09-25T18:28:26.697Z,96751.94
2018-09-25T18:31:00.552Z,96754.33
2018-09-25T18:33:34.787Z,96746.52
2018-09-25T18:36:08.635Z,96752.92
2018-09-25T18:38:42.665Z,96765.12
2018-09-25T18:41:16.574Z,96762.78
2018-09-25T18:43:50.534Z,96775.03
2018-09-25T18:46:24.525Z,96772.42
2018-09-25T18:48:58.344Z,96774.18
2018-09-25T18:51:32.184Z,96770.63
2018-09-25T18:54:06.218Z,96782.59
2018-09-25T18:56:39.987Z,96778.91
2018-09-25T18:59:13.998Z,96774.86
2018-09-25T19:01:47.926Z,96776.02
2018-09-25T19:04:21.847Z,96779.76
2018-09-25T19:06:55.733Z,96790.11
2018-09-25T19:09:29.902Z,96792.81
2018-09-25T19:12:03.832Z,96792.27
2018-09-25T19:14:37.728Z,96795.59
2018-09-25T19:17:11.657Z,96792.44
2018-09-25T19:19:45.497Z,96798.35
2018-09-25T19:22:19.296Z,96807.16
2018-09-25T19:24:53.332Z,96812.55
2018-09-25T19:27:28.260Z,96815.98
2018-09-25T19:30:02.101Z,96813.23
2018-09-25T19:32:36.043Z,96817.75
2018-09-25T19:35:09.888Z,96826.19
2018-09-25T19:37:43.847Z,96818.52
2018-09-25T19:40:17.781Z,96816.78
2018-09-25T19:42:51.656Z,96819.52
2018-09-25T19:45:25.483Z,96544.25
2018-09-25T19:47:59.422Z,96825.77
2018-09-25T19:50:33.356Z,96824.92
2018-09-25T19:53:07.329Z,96833.02
2018-09-25T19:55:41.193Z,96837.72
2018-09-25T19:58:15.114Z,96845.58
2018-09-25T20:00:49.080Z,96842.11
2018-09-25T20:03:22.918Z,96846.16
2018-09-25T20:05:56.911Z,96848.62
2018-09-25T20:08:30.841Z,96854.83
2018-09-25T20:11:04.803Z,96853.75
2018-09-25T20:13:38.716Z,96864.88
2018-09-25T20:16:12.733Z,96858.64
2018-09-25T20:18:46.701Z,96858.38
2018-09-25T20:21:20.517Z,96855.98
2018-09-25T20:23:54.526Z,96865.23
2018-09-25T20:26:28.522Z,96853.73
2018-09-25T20:29:02.293Z,96864.59
2018-09-25T20:31:36.150Z,96865.97
2018-09-25T20:34:09.964Z,96868.70
2018-09-25T20:36:43.804Z,96871.13
2018-09-25T20:39:17.568Z,96869.21
2018-09-25T20:41:51.316Z,96872.34
2018-09-25T20:44:25.240Z,96871.50
2018-09-25T20:46:59.143Z,96876.69
2018-09-25T20:49:32.888Z,96879.90
2018-09-25T20:52:07.459Z,96875.14
2018-09-25T20:54:41.220Z,96865.41
2018-09-25T20:57:15.117Z,96881.69
2018-09-25T20:59:49.012Z,96881.33
2018-09-25T21:02:22.968Z,96876.09
2018-09-25T21:04:56.758Z,96836.34
2018-09-25T21:07:30.613Z,96875.02
2018-09-25T21:10:04.454Z,96870.89
2018-09-25T21:12:38.403Z,96871.30
2018-09-25T21:15:12.521Z,96875.91
2018-09-25T21:17:46.308Z,96878.30
2018-09-25T21:20:20.127Z,96881.17
2018-09-25T21:22:54.171Z,96873.98
2018-09-25T21:25:28.017Z,96872.14
2018-09-25T21:28:01.799Z,96867.28
2018-09-25T21:30:35.734Z,96865.80
2018-09-25T21:33:09.675Z,96870.69
2018-09-25T21:35:43.600Z,96869.33
2018-09-25T21:38:17.516Z,96873.42
2018-09-25T21:40:51.465Z,96867.98
2018-09-25T21:43:25.368Z,96860.84
2018-09-25T21:45:59.239Z,96874.20
2018-09-25T21:48:33.116Z,96865.27
2018-09-25T21:51:07.205Z,96866.64
2018-09-25T21:53:41.016Z,96866.95
2018-09-25T21:56:14.968Z,96859.52
2018-09-25T21:58:48.856Z,96855.16
2018-09-25T22:01:22.844Z,96856.48
2018-09-25T22:03:56.601Z,96862.34
2018-09-25T22:06:30.448Z,96858.69
2018-09-25T22:09:07.378Z,96867.28
2018-09-25T22:11:41.405Z,96862.77
2018-09-25T22:14:15.532Z,96864.20
2018-09-25T22:16:49.396Z,96868.39
2018-09-25T22:19:23.355Z,96878.48
2018-09-25T22:21:57.371Z,96874.20
2018-09-25T22:24:31.422Z,96876.69
2018-09-25T22:27:05.405Z,96868.91
2018-09-25T22:29:39.240Z,96870.05
2018-09-25T22:32:13.108Z,96862.49
2018-09-25T22:34:46.919Z,96871.97
2018-09-25T22:37:20.840Z,96867.23
2018-09-25T22:39:54.718Z,96869.14
2018-09-25T22:42:28.675Z,96865.59
2018-09-25T22:45:02.664Z,96864.77
2018-09-25T22:47:36.550Z,96866.75
2018-09-25T22:50:10.501Z,96873.42
2018-09-25T22:52:44.513Z,96873.25
2018-09-25T22:55:18.373Z,96878.73
2018-09-25T22:57:52.181Z,96877.70
2018-09-25T23:00:26.028Z,96877.34
2018-09-25T23:02:59.726Z,96879.25
2018-09-25T23:05:33.704Z,96881.75
2018-09-25T23:08:07.529Z,96883.33
2018-09-25T23:10:41.427Z,96878.63
2018-09-25T23:13:15.247Z,96884.80
2018-09-25T23:15:49.024Z,96878.31
2018-09-25T23:18:22.903Z,96879.81
2018-09-25T23:20:56.784Z,96878.71
2018-09-25T23:23:30.731Z,96882.63
2018-09-25T23:26:04.593Z,96883.07
2018-09-25T23:28:38.565Z,96873.34
2018-09-25T23:31:13.275Z,96881.33
2018-09-25T23:33:47.131Z,96875.69
2018-09-25T23:36:21.051Z,96880.30
2018-09-25T23:38:54.904Z,96877.53
2018-09-25T23:41:27.662Z,96884.93
2018-09-25T23:44:01.369Z,96879.52
2018-09-25T23:46:34.157Z,96884.41
2018-09-25T23:49:20.546Z,96881.28
2018-09-25T23:52:12.373Z,96884.16
2018-09-25T23:54:47.233Z,96890.41
2018-09-25T23:57:19.844Z,96890.47
2018-09-25T23:59:52.462Z,96889.36
